createdAt,value
2022-10-08T00:01:24.237Z,101248.09
2022-10-08T00:03:54.564Z,101249.63
2022-10-08T00:06:31.914Z,101247.31
2022-10-08T00:09:08.499Z,101237.13
2022-10-08T00:11:39.666Z,101238.00
2022-10-08T00:14:08.239Z,101230.19
2022-10-08T00:16:40.396Z,101238.44
2022-10-08T00:19:10.879Z,101232.31
2022-10-08T00:21:41.963Z,101231.25
2022-10-08T00:24:17.402Z,101226.81
2022-10-08T00:26:46.197Z,101228.53
2022-10-08T00:29:17.453Z,101224.75
2022-10-08T00:31:48.044Z,101219.91
2022-10-08T00:34:19.927Z,101212.50
2022-10-08T00:36:53.409Z,101214.91
2022-10-08T00:39:23.964Z,101212.94
2022-10-08T00:41:55.087Z,101205.34
2022-10-08T00:44:53.745Z,101209.91
2022-10-08T00:47:32.697Z,101211.56
2022-10-08T00:50:47.126Z,101204.81
2022-10-08T00:53:14.336Z,101201.69
2022-10-08T00:55:43.771Z,101195.59
2022-10-08T00:58:23.074Z,101195.84
2022-10-08T01:00:50.386Z,101197.94
2022-10-08T01:03:17.937Z,101190.25
2022-10-08T01:06:01.264Z,101184.00
2022-10-08T01:08:58.496Z,101186.22
2022-10-08T01:11:31.369Z,101184.84
2022-10-08T01:14:07.513Z,101186.81
2022-10-08T01:17:05.212Z,101183.72
2022-10-08T01:19:57.217Z,101181.41
2022-10-08T01:22:57.613Z,101182.91
2022-10-08T01:25:38.302Z,101173.03
2022-10-08T01:28:40.966Z,101177.19
2022-10-08T01:31:31.373Z,101167.16
2022-10-08T01:34:00.389Z,101169.19
2022-10-08T01:36:33.243Z,101167.47
2022-10-08T01:39:08.402Z,101158.94
2022-10-08T01:41:35.905Z,101152.81
2022-10-08T01:44:13.659Z,101151.69
2022-10-08T01:46:46.647Z,101155.31
2022-10-08T01:49:22.176Z,101157.28
2022-10-08T01:51:58.301Z,101150.81
2022-10-08T01:54:28.896Z,101154.28
2022-10-08T01:56:59.414Z,101152.47
2022-10-08T01:59:52.179Z,101153.47
2022-10-08T02:02:25.430Z,101148.69
2022-10-08T02:04:55.658Z,101142.28
2022-10-08T02:07:30.993Z,101153.84
2022-10-08T02:10:11.437Z,101141.78
2022-10-08T02:12:40.314Z,101129.59
2022-10-08T02:15:15.637Z,101136.50
2022-10-08T02:18:21.087Z,101133.19
2022-10-08T02:21:19.001Z,101129.72
2022-10-08T02:24:33.831Z,101132.19
2022-10-08T02:27:04.672Z,101123.47
2022-10-08T02:29:37.925Z,101135.75
2022-10-08T02:32:11.436Z,101130.19
2022-10-08T02:34:56.467Z,101133.13
2022-10-08T02:37:28.251Z,101131.00
2022-10-08T02:40:10.905Z,101137.09
2022-10-08T02:42:44.984Z,101136.84
2022-10-08T02:45:38.014Z,101130.91
2022-10-08T02:48:15.169Z,101129.06
2022-10-08T02:50:45.696Z,101134.03
2022-10-08T02:53:18.368Z,101130.72
2022-10-08T02:56:08.526Z,101131.22
2022-10-08T02:58:38.924Z,101132.22
2022-10-08T03:01:30.993Z,101128.91
2022-10-08T03:04:12.683Z,101116.53
2022-10-08T03:06:43.438Z,101123.94
2022-10-08T03:09:14.498Z,101123.63
2022-10-08T03:11:44.532Z,101127.22
2022-10-08T03:14:15.630Z,101121.28
2022-10-08T03:16:45.994Z,101122.94
2022-10-08T03:19:17.024Z,101122.78
2022-10-08T03:21:46.983Z,101122.59
2022-10-08T03:24:15.454Z,101127.91
2022-10-08T03:26:43.213Z,101119.66
2022-10-08T03:29:11.190Z,101115.34
2022-10-08T03:31:38.836Z,101116.03
2022-10-08T03:34:12.144Z,101114.00
2022-10-08T03:36:39.287Z,101119.97
2022-10-08T03:39:11.751Z,101120.31
2022-10-08T03:41:41.282Z,101117.16
2022-10-08T03:44:09.699Z,101115.97
2022-10-08T03:46:36.996Z,101129.88
2022-10-08T03:49:04.362Z,101128.91
2022-10-08T03:51:31.493Z,101118.84
2022-10-08T03:53:58.815Z,101118.34
2022-10-08T03:56:26.519Z,101113.03
2022-10-08T03:58:59.660Z,101109.75
2022-10-08T04:01:29.086Z,101106.41
2022-10-08T04:04:01.335Z,101106.38
2022-10-08T04:06:28.684Z,101106.56
2022-10-08T04:09:01.245Z,101105.09
2022-10-08T04:11:29.300Z,101104.03
2022-10-08T04:13:56.734Z,101109.66
2022-10-08T04:16:26.320Z,101112.66
2022-10-08T04:18:56.485Z,101111.03
2022-10-08T04:21:23.644Z,101106.72
2022-10-08T04:23:50.964Z,101110.50
2022-10-08T04:26:18.453Z,101101.41
2022-10-08T04:28:46.334Z,101113.28
2022-10-08T04:31:21.887Z,101111.28
2022-10-08T04:33:51.686Z,101106.06
2022-10-08T04:36:22.928Z,101108.47
2022-10-08T04:38:50.745Z,101099.75
2022-10-08T04:41:22.577Z,101102.22
2022-10-08T04:43:50.644Z,101099.53
2022-10-08T04:46:23.840Z,101104.63
2022-10-08T04:48:54.673Z,101102.94
2022-10-08T04:51:24.980Z,101101.63
2022-10-08T04:53:53.930Z,101088.06
2022-10-08T04:56:31.182Z,101100.31
2022-10-08T04:58:59.855Z,101084.19
2022-10-08T05:01:30.772Z,101094.34
2022-10-08T05:03:59.648Z,101081.78
2022-10-08T05:06:30.406Z,101086.53
2022-10-08T05:09:03.101Z,101083.72
2022-10-08T05:11:31.950Z,101086.41
2022-10-08T05:13:59.914Z,101085.03
2022-10-08T05:16:27.784Z,101084.72
2022-10-08T05:18:56.346Z,101092.94
2022-10-08T05:21:27.775Z,101081.81
2022-10-08T05:24:05.322Z,101085.13
2022-10-08T05:29:28.548Z,101091.53
2022-10-08T05:31:58.871Z,101100.16
2022-10-08T05:34:26.338Z,101083.31
2022-10-08T05:36:53.624Z,101083.50
2022-10-08T05:39:25.606Z,101069.44
2022-10-08T05:41:54.182Z,101077.38
2022-10-08T05:44:21.637Z,101076.59
2022-10-08T05:46:48.806Z,101084.50
2022-10-08T05:49:22.522Z,101093.25
2022-10-08T05:51:53.516Z,101095.50
2022-10-08T05:54:23.541Z,101091.41
2022-10-08T05:56:50.757Z,101093.88
2022-10-08T05:59:23.699Z,101103.75
2022-10-08T06:01:51.998Z,101101.03
2022-10-08T06:04:19.699Z,101099.41
2022-10-08T06:06:47.173Z,101101.75
2022-10-08T06:09:25.494Z,101092.56
2022-10-08T06:11:52.781Z,101093.69
2022-10-08T06:14:25.903Z,101089.66
2022-10-08T06:16:57.916Z,101083.63
2022-10-08T06:19:25.121Z,101082.09
2022-10-08T06:21:52.419Z,101079.09
2022-10-08T06:24:21.032Z,101067.84
2022-10-08T06:26:48.263Z,101072.84
2022-10-08T06:29:19.275Z,101079.53
2022-10-08T06:31:47.107Z,101078.72
2022-10-08T06:34:19.796Z,101069.75
2022-10-08T06:36:46.958Z,101078.28
2022-10-08T06:39:17.792Z,101087.81
2022-10-08T06:41:47.876Z,101093.00
2022-10-08T06:44:15.768Z,101084.81
2022-10-08T06:46:43.242Z,101087.78
2022-10-08T06:49:13.400Z,101078.13
2022-10-08T06:51:40.818Z,101090.28
2022-10-08T06:54:08.736Z,101090.78
2022-10-08T06:56:38.733Z,101095.50
2022-10-08T06:59:06.934Z,101089.25
2022-10-08T07:01:35.534Z,101084.53
2022-10-08T07:04:04.231Z,101079.75
2022-10-08T07:06:31.633Z,101081.69
2022-10-08T07:09:01.403Z,101083.41
2022-10-08T07:11:33.670Z,101088.97
2022-10-08T07:14:03.521Z,101077.31
2022-10-08T07:16:30.734Z,101078.56
2022-10-08T07:19:01.513Z,101073.53
2022-10-08T07:21:30.255Z,101081.13
2022-10-08T07:24:02.091Z,101079.47
2022-10-08T07:26:34.952Z,101068.97
2022-10-08T07:29:24.629Z,101067.94
2022-10-08T07:31:51.969Z,101064.41
2022-10-08T07:34:22.109Z,101057.66
2022-10-08T07:36:49.245Z,101059.97
2022-10-08T07:39:24.049Z,101057.56
2022-10-08T07:41:51.729Z,101071.38
2022-10-08T07:44:19.118Z,101063.25
2022-10-08T07:46:50.609Z,101070.09
2022-10-08T07:49:19.420Z,101077.53
2022-10-08T07:51:48.188Z,101083.09
2022-10-08T07:54:21.456Z,101088.41
2022-10-08T07:56:48.809Z,101072.75
2022-10-08T07:59:16.247Z,101078.69
2022-10-08T08:01:43.861Z,101063.75
2022-10-08T08:04:12.267Z,101056.50
2022-10-08T08:06:47.791Z,101057.16
2022-10-08T08:09:18.402Z,101068.75
2022-10-08T08:11:46.532Z,101067.84
2022-10-08T08:14:13.826Z,101057.38
2022-10-08T08:16:40.989Z,101062.22
2022-10-08T08:19:08.478Z,101060.84
2022-10-08T08:21:39.637Z,101054.25
2022-10-08T08:24:11.485Z,101051.03
2022-10-08T08:26:41.539Z,101059.47
2022-10-08T08:29:13.623Z,101056.25
2022-10-08T08:31:46.569Z,101054.72
2022-10-08T08:34:18.985Z,101059.09
2022-10-08T08:36:49.379Z,101062.00
2022-10-08T08:39:24.379Z,101061.06
2022-10-08T08:42:25.456Z,101061.09
2022-10-08T08:45:02.091Z,101058.91
2022-10-08T08:48:06.790Z,101062.63
2022-10-08T08:50:38.292Z,101056.56
2022-10-08T08:53:08.868Z,101052.03
2022-10-08T08:55:47.353Z,101057.16
2022-10-08T08:59:05.549Z,101055.72
2022-10-08T09:01:45.338Z,101064.44
2022-10-08T09:04:45.111Z,101068.25
2022-10-08T09:07:18.969Z,101071.59
2022-10-08T09:09:53.486Z,101068.19
2022-10-08T09:12:31.249Z,101063.53
2022-10-08T09:15:01.668Z,101052.50
2022-10-08T09:17:36.480Z,101047.59
2022-10-08T09:20:04.355Z,101060.13
2022-10-08T09:22:41.858Z,101055.03
2022-10-08T09:25:31.497Z,101052.72
2022-10-08T09:28:04.885Z,101049.91
2022-10-08T09:30:45.003Z,101044.22
2022-10-08T09:33:18.690Z,101050.56
2022-10-08T09:35:55.115Z,101056.09
2022-10-08T09:38:28.166Z,101053.81
2022-10-08T09:41:19.384Z,101049.50
2022-10-08T09:44:25.578Z,101043.88
2022-10-08T09:47:06.443Z,101047.03
2022-10-08T09:49:37.908Z,101055.91
2022-10-08T09:52:19.642Z,101053.13
2022-10-08T09:54:52.485Z,101043.72
2022-10-08T09:57:23.481Z,101049.75
2022-10-08T09:59:59.239Z,101050.19
2022-10-08T10:02:38.746Z,101049.16
2022-10-08T10:05:24.824Z,101044.41
2022-10-08T10:07:53.004Z,101038.75
2022-10-08T10:10:41.070Z,101043.00
2022-10-08T10:13:34.965Z,101043.84
2022-10-08T10:16:33.207Z,101045.34
2022-10-08T10:19:17.068Z,101046.47
2022-10-08T10:22:00.181Z,101048.09
2022-10-08T10:24:46.438Z,101043.69
2022-10-08T10:27:30.711Z,101056.50
2022-10-08T10:30:14.949Z,101048.56
2022-10-08T10:33:19.564Z,101054.91
2022-10-08T10:35:54.589Z,101057.94
2022-10-08T10:38:27.990Z,101047.06
2022-10-08T10:41:09.866Z,101044.88
2022-10-08T10:43:50.872Z,101044.72
2022-10-08T10:46:41.936Z,101037.06
2022-10-08T10:49:15.256Z,101025.81
2022-10-08T10:52:19.986Z,101031.66
2022-10-08T10:55:14.809Z,101028.59
2022-10-08T10:58:20.564Z,101041.69
2022-10-08T11:01:15.930Z,101037.88
2022-10-08T11:04:13.307Z,101034.25
2022-10-08T11:06:55.260Z,101030.75
2022-10-08T11:09:42.754Z,101025.72
2022-10-08T11:12:38.713Z,101029.81
2022-10-08T11:16:10.047Z,101033.44
2022-10-08T11:18:59.431Z,101023.53
2022-10-08T11:21:50.128Z,101022.84
2022-10-08T11:24:23.997Z,101025.97
2022-10-08T11:26:57.900Z,101023.00
2022-10-08T11:30:00.532Z,101028.88
2022-10-08T11:32:29.944Z,101036.44
2022-10-08T11:35:12.276Z,101022.59
2022-10-08T11:38:00.001Z,101018.94
2022-10-08T11:40:53.947Z,101017.97
2022-10-08T11:44:01.729Z,101021.88
2022-10-08T11:46:36.810Z,101023.03
2022-10-08T11:49:15.577Z,101008.78
2022-10-08T11:51:50.574Z,101013.59
2022-10-08T11:54:26.523Z,100995.09
2022-10-08T11:57:25.725Z,100998.72
2022-10-08T11:59:59.792Z,100991.28
2022-10-08T12:02:35.929Z,101002.78
2022-10-08T12:05:47.881Z,101000.03
2022-10-08T12:08:59.385Z,101008.53
2022-10-08T12:11:32.357Z,101012.81
2022-10-08T12:14:17.381Z,101003.13
2022-10-08T12:16:57.058Z,101001.97
2022-10-08T12:19:33.739Z,101007.59
2022-10-08T12:22:10.372Z,100996.34
2022-10-08T12:24:40.423Z,100993.75
2022-10-08T12:27:46.797Z,100998.69
2022-10-08T12:30:17.681Z,100996.88
2022-10-08T12:32:45.102Z,100998.66
2022-10-08T12:35:34.161Z,100996.84
2022-10-08T12:38:29.355Z,101007.63
2022-10-08T12:41:41.781Z,101002.47
2022-10-08T12:44:45.748Z,100997.53
2022-10-08T12:47:37.193Z,101002.50
2022-10-08T12:51:05.451Z,100997.06
2022-10-08T12:53:33.615Z,100997.88
2022-10-08T12:56:01.149Z,100997.06
2022-10-08T12:58:35.891Z,100996.72
2022-10-08T13:01:05.894Z,100997.28
2022-10-08T13:03:33.322Z,100990.44
2022-10-08T13:06:31.776Z,100982.63
2022-10-08T13:09:03.326Z,100985.91
2022-10-08T13:11:30.564Z,100968.56
2022-10-08T13:13:57.877Z,100982.19
2022-10-08T13:16:26.985Z,100983.16
2022-10-08T13:19:02.575Z,100994.88
2022-10-08T13:21:36.176Z,100986.69
2022-10-08T13:24:25.381Z,100993.88
2022-10-08T13:26:55.986Z,101009.25
2022-10-08T13:29:23.186Z,101006.59
2022-10-08T13:32:14.523Z,101011.41
2022-10-08T13:34:43.695Z,101006.31
2022-10-08T13:37:22.951Z,101003.56
2022-10-08T13:40:00.902Z,101009.00
2022-10-08T13:42:39.950Z,101011.44
2022-10-08T13:45:17.210Z,101013.66
2022-10-08T13:47:45.088Z,101015.72
2022-10-08T13:50:16.780Z,101003.00
2022-10-08T13:52:53.979Z,101016.69
2022-10-08T13:55:21.163Z,101010.97
2022-10-08T13:57:48.590Z,101007.13
2022-10-08T14:00:16.830Z,101016.00
2022-10-08T14:02:46.727Z,101009.59
2022-10-08T14:05:14.008Z,101011.69
2022-10-08T14:07:46.297Z,101010.81
2022-10-08T14:10:14.529Z,101005.56
2022-10-08T14:12:41.759Z,101013.69
2022-10-08T14:15:13.660Z,101018.19
2022-10-08T14:17:40.943Z,101016.94
2022-10-08T14:20:09.642Z,101016.53
2022-10-08T14:22:39.829Z,101018.66
2022-10-08T14:25:16.866Z,101020.50
2022-10-08T14:27:45.585Z,101014.59
2022-10-08T14:30:14.690Z,101023.47
2022-10-08T14:32:42.413Z,101013.53
2022-10-08T14:35:11.333Z,101008.31
2022-10-08T14:37:38.916Z,101015.03
2022-10-08T14:40:11.321Z,101011.88
2022-10-08T14:42:38.437Z,101017.78
2022-10-08T14:45:06.209Z,101022.63
2022-10-08T14:47:33.325Z,101026.88
2022-10-08T14:50:00.716Z,101026.25
2022-10-08T14:52:27.915Z,101021.59
2022-10-08T14:54:55.318Z,101020.84
2022-10-08T14:57:23.170Z,101026.22
2022-10-08T14:59:50.296Z,101023.56
2022-10-08T15:02:17.456Z,101014.72
2022-10-08T15:04:44.593Z,101027.09
2022-10-08T15:07:11.795Z,101024.44
2022-10-08T15:09:41.402Z,101031.88
2022-10-08T15:12:08.812Z,101027.03
2022-10-08T15:14:38.661Z,101033.59
2022-10-08T15:17:05.968Z,101026.75
2022-10-08T15:19:33.282Z,101020.78
2022-10-08T15:22:00.676Z,101025.94
2022-10-08T15:24:27.883Z,101028.94
2022-10-08T15:26:57.285Z,101031.31
2022-10-08T15:29:24.381Z,101032.47
2022-10-08T15:31:54.033Z,101035.25
2022-10-08T15:34:22.583Z,101038.56
2022-10-08T15:36:49.856Z,101039.03
2022-10-08T15:39:21.247Z,101038.88
2022-10-08T15:41:54.491Z,101039.69
2022-10-08T15:44:26.072Z,101043.66
2022-10-08T15:47:04.608Z,101038.34
2022-10-08T15:49:37.269Z,101035.53
2022-10-08T15:52:07.643Z,101045.38
2022-10-08T15:54:42.156Z,101047.69
2022-10-08T15:57:13.669Z,101045.25
2022-10-08T15:59:43.507Z,101041.09
2022-10-08T16:02:17.624Z,101048.06
2022-10-08T16:04:48.744Z,101048.66
2022-10-08T16:07:17.399Z,101053.13
2022-10-08T16:09:44.584Z,101064.31
2022-10-08T16:12:14.296Z,101062.66
2022-10-08T16:14:41.462Z,101074.75
2022-10-08T16:17:09.056Z,101075.75
2022-10-08T16:19:38.618Z,101081.66
2022-10-08T16:22:06.664Z,101088.69
2022-10-08T16:24:33.983Z,101091.66
2022-10-08T16:27:01.134Z,101096.31
2022-10-08T16:29:30.694Z,101098.19
2022-10-08T16:31:58.771Z,101104.56
2022-10-08T16:34:28.595Z,101096.09
2022-10-08T16:36:56.166Z,101105.88
2022-10-08T16:39:25.839Z,101102.31
2022-10-08T16:41:52.970Z,101110.47
2022-10-08T16:44:21.429Z,101110.47
2022-10-08T16:46:52.888Z,101117.91
2022-10-08T16:49:26.901Z,101114.25
2022-10-08T16:52:00.802Z,101122.53
2022-10-08T16:54:28.812Z,101116.47
2022-10-08T16:56:56.811Z,101129.03
2022-10-08T16:59:29.070Z,101131.59
2022-10-08T17:01:57.909Z,101132.38
2022-10-08T17:04:28.451Z,101137.56
2022-10-08T17:06:56.092Z,101146.88
2022-10-08T17:09:23.595Z,101147.03
2022-10-08T17:11:50.839Z,101151.88
2022-10-08T17:14:20.952Z,101148.59
2022-10-08T17:16:50.581Z,101158.16
2022-10-08T17:19:18.618Z,101154.41
2022-10-08T17:21:48.440Z,101163.50
2022-10-08T17:24:15.612Z,101173.34
2022-10-08T17:26:42.815Z,101172.38
2022-10-08T17:29:12.849Z,101174.69
2022-10-08T17:31:40.805Z,101175.00
2022-10-08T17:34:13.513Z,101175.53
2022-10-08T17:36:43.995Z,101188.63
2022-10-08T17:39:15.784Z,101193.59
2022-10-08T17:41:43.673Z,101196.06
2022-10-08T17:44:12.146Z,101211.72
2022-10-08T17:46:50.175Z,101207.66
2022-10-08T17:49:20.661Z,101219.78
2022-10-08T17:51:48.567Z,101221.84
2022-10-08T17:54:19.774Z,101226.16
2022-10-08T17:56:48.196Z,101225.13
2022-10-08T17:59:17.749Z,101218.16
2022-10-08T18:01:46.175Z,101222.69
2022-10-08T18:04:16.451Z,101226.16
2022-10-08T18:06:46.474Z,101226.16
2022-10-08T18:09:20.820Z,101222.88
2022-10-08T18:11:53.423Z,101222.28
2022-10-08T18:14:22.282Z,101232.13
2022-10-08T18:16:49.906Z,101242.81
2022-10-08T18:19:18.421Z,101245.88
2022-10-08T18:21:46.420Z,101251.63
2022-10-08T18:24:13.928Z,101252.47
2022-10-08T18:26:41.166Z,101247.13
2022-10-08T18:29:11.976Z,101259.44
2022-10-08T18:31:42.261Z,101250.81
2022-10-08T18:34:15.783Z,101261.47
2022-10-08T18:36:45.347Z,101257.94
2022-10-08T18:39:19.075Z,101256.13
2022-10-08T18:41:49.467Z,101263.94
2022-10-08T18:44:22.066Z,101270.44
2022-10-08T18:46:50.180Z,101258.94
2022-10-08T18:49:20.698Z,101263.69
2022-10-08T18:51:50.119Z,101262.53
2022-10-08T18:54:17.478Z,101269.78
2022-10-08T18:56:44.522Z,101270.84
2022-10-08T18:59:15.006Z,101269.59
2022-10-08T19:01:47.604Z,101267.47
2022-10-08T19:04:21.043Z,101278.81
2022-10-08T19:06:51.171Z,101275.97
2022-10-08T19:09:19.004Z,101271.78
2022-10-08T19:11:49.819Z,101271.78
2022-10-08T19:14:21.868Z,101282.09
2022-10-08T19:16:51.897Z,101279.97
2022-10-08T19:19:27.409Z,101284.44
2022-10-08T19:21:55.767Z,101283.13
2022-10-08T19:24:27.559Z,101287.94
2022-10-08T19:26:56.329Z,101287.38
2022-10-08T19:29:29.555Z,101284.84
2022-10-08T19:31:58.016Z,101304.72
2022-10-08T19:34:29.331Z,101296.94
2022-10-08T19:36:56.624Z,101293.66
2022-10-08T19:39:31.027Z,101297.44
2022-10-08T19:42:00.666Z,101307.25
2022-10-08T19:44:27.838Z,101308.88
2022-10-08T19:46:55.148Z,101310.75
2022-10-08T19:49:22.500Z,101318.22
2022-10-08T19:51:49.732Z,101329.84
2022-10-08T19:54:18.304Z,101320.56
2022-10-08T19:56:45.855Z,101330.63
2022-10-08T19:59:13.805Z,101346.78
2022-10-08T20:01:42.834Z,101344.94
2022-10-08T20:04:11.896Z,101353.25
2022-10-08T20:06:43.262Z,101346.28
2022-10-08T20:09:14.210Z,101357.84
2022-10-08T20:11:46.334Z,101361.91
2022-10-08T20:14:14.908Z,101360.72
2022-10-08T20:16:45.944Z,101355.59
2022-10-08T20:19:21.065Z,101365.13
2022-10-08T20:21:49.861Z,101366.66
2022-10-08T20:24:19.004Z,101366.03
2022-10-08T20:26:46.628Z,101364.28
2022-10-08T20:29:20.842Z,101367.78
2022-10-08T20:31:54.302Z,101371.63
2022-10-08T20:34:28.829Z,101377.06
2022-10-08T20:36:58.067Z,101364.06
2022-10-08T20:39:25.316Z,101383.97
2022-10-08T20:41:52.517Z,101380.81
2022-10-08T20:44:20.282Z,101387.03
2022-10-08T20:46:50.611Z,101390.00
2022-10-08T20:49:18.348Z,101386.94
2022-10-08T20:51:45.505Z,101393.06
2022-10-08T20:54:17.261Z,101390.19
2022-10-08T20:56:47.128Z,101390.25
2022-10-08T20:59:19.008Z,101399.91
2022-10-08T21:01:55.743Z,101398.16
2022-10-08T21:04:24.097Z,101394.50
2022-10-08T21:06:52.009Z,101392.84
2022-10-08T21:09:24.013Z,101392.19
2022-10-08T21:11:52.469Z,101395.69
2022-10-08T21:14:22.759Z,101402.94
2022-10-08T21:16:50.136Z,101406.31
2022-10-08T21:19:22.309Z,101403.41
2022-10-08T21:21:49.362Z,101403.19
2022-10-08T21:24:16.984Z,101408.44
2022-10-08T21:26:44.430Z,101406.97
2022-10-08T21:29:14.293Z,101409.91
2022-10-08T21:31:42.339Z,101409.16
2022-10-08T21:34:12.446Z,101413.00
2022-10-08T21:36:41.476Z,101411.28
2022-10-08T21:39:15.262Z,101417.03
2022-10-08T21:41:42.353Z,101423.25
2022-10-08T21:44:09.775Z,101430.22
2022-10-08T21:46:40.905Z,101423.19
2022-10-08T21:49:15.120Z,101437.28
2022-10-08T21:51:45.359Z,101424.06
2022-10-08T21:54:13.652Z,101429.28
2022-10-08T21:56:42.383Z,101438.63
2022-10-08T21:59:14.151Z,101437.69
2022-10-08T22:01:48.159Z,101442.81
2022-10-08T22:04:16.875Z,101439.41
2022-10-08T22:06:50.979Z,101438.97
2022-10-08T22:09:26.284Z,101451.41
2022-10-08T22:11:55.504Z,101453.25
2022-10-08T22:14:24.023Z,101460.19
2022-10-08T22:16:56.316Z,101460.22
2022-10-08T22:19:23.823Z,101463.28
2022-10-08T22:21:51.126Z,101455.75
2022-10-08T22:24:18.636Z,101465.25
2022-10-08T22:26:47.755Z,101466.59
2022-10-08T22:29:15.308Z,101467.03
2022-10-08T22:31:42.638Z,101475.13
2022-10-08T22:34:10.145Z,101492.53
2022-10-08T22:36:44.030Z,101476.16
2022-10-08T22:39:11.932Z,101476.94
2022-10-08T22:41:41.892Z,101478.63
2022-10-08T22:44:09.235Z,101481.34
2022-10-08T22:46:39.533Z,101483.34
2022-10-08T22:49:12.291Z,101482.06
2022-10-08T22:51:43.937Z,101483.69
2022-10-08T22:54:11.168Z,101489.34
2022-10-08T22:56:38.425Z,101493.53
2022-10-08T22:59:05.530Z,101496.72
2022-10-08T23:01:32.724Z,101496.75
2022-10-08T23:03:59.987Z,101499.06
2022-10-08T23:06:31.232Z,101498.75
2022-10-08T23:09:02.277Z,101503.03
2022-10-08T23:11:31.858Z,101505.69
2022-10-08T23:14:00.814Z,101506.88
2022-10-08T23:16:31.380Z,101504.03
2022-10-08T23:19:05.861Z,101506.25
2022-10-08T23:21:34.079Z,101513.00
2022-10-08T23:24:01.454Z,101514.66
2022-10-08T23:26:29.413Z,101518.00
2022-10-08T23:29:00.450Z,101520.59
2022-10-08T23:31:31.596Z,101533.50
2022-10-08T23:33:59.930Z,101524.41
2022-10-08T23:36:33.280Z,101528.56
2022-10-08T23:39:00.614Z,101536.22
2022-10-08T23:41:28.390Z,101539.88
2022-10-08T23:43:57.447Z,101543.00
2022-10-08T23:46:29.647Z,101540.69
2022-10-08T23:48:57.842Z,101544.84
2022-10-08T23:51:31.683Z,101547.47
2022-10-08T23:53:59.291Z,101546.63
2022-10-08T23:56:26.844Z,101556.59
2022-10-08T23:58:54.165Z,101559.34
